Time;durP1;ratioP1;P1;durP2;ratioP2;P2;SDS_P1;SDS_P2;PMS_P1;PMS_P2;Temp;Humidity;BMP_temperature;BMP_pressure;BME280_temperature;BME280_humidity;BME280_pressure;Samples;Min_cycle;Max_cycle;Signal;HPM_P1;HPM_P2
2023/04/13 00:00:38;;;;;;;4.05;1.10;;;;;;;5.76;94.51;99443.41;5052062;28;20085;-76
2023/04/13 00:03:05;;;;;;;5.63;0.93;;;;;;;5.76;95.17;99436.50;5068950;28;20103;-76
2023/04/13 00:05:33;;;;;;;6.30;0.73;;;;;;;5.82;95.70;99435.06;5081559;28;20043;-77
2023/04/13 00:08:01;;;;;;;5.38;0.98;;;;;;;5.93;95.29;99432.19;5070681;28;20397;-76
2023/04/13 00:10:30;;;;;;;9.48;0.80;;;;;;;5.93;94.53;99428.81;5060079;28;20119;-77
2023/04/13 00:12:57;;;;;;;5.85;1.05;;;;;;;6.01;94.89;99406.50;5081248;28;20402;-76
2023/04/13 00:15:24;;;;;;;3.33;0.63;;;;;;;5.96;94.84;99416.47;5067494;28;20040;-76
2023/04/13 00:17:50;;;;;;;4.47;1.10;;;;;;;5.97;96.62;99418.09;5048074;28;20032;-76
2023/04/13 00:20:16;;;;;;;2.78;0.60;;;;;;;6.02;95.87;99409.88;5059637;28;20048;-76
2023/04/13 00:22:43;;;;;;;4.80;1.25;;;;;;;6.02;98.07;99415.03;5076937;28;20036;-77
2023/04/13 00:25:11;;;;;;;6.22;0.50;;;;;;;6.04;98.23;99410.50;5077356;28;20048;-76
2023/04/13 00:27:41;;;;;;;2.05;0.80;;;;;;;5.92;99.54;99422.06;5089920;28;20028;-76
2023/04/13 00:30:16;;;;;;;5.40;0.75;;;;;;;5.89;99.45;99422.38;5082054;28;20198;-76
2023/04/13 00:32:44;;;;;;;10.10;1.08;;;;;;;5.94;100.00;99425.28;5072033;28;20032;-77
2023/04/13 00:35:12;;;;;;;5.65;0.65;;;;;;;5.89;100.00;99422.38;5058058;28;20044;-77
2023/04/13 00:37:38;;;;;;;6.93;1.45;;;;;;;5.75;100.00;99418.66;5061413;28;20020;-76
2023/04/13 00:40:06;;;;;;;4.18;1.00;;;;;;;5.74;100.00;99412.69;5045070;28;20033;-77
2023/04/13 00:42:32;;;;;;;3.90;0.70;;;;;;;5.74;100.00;99414.47;5037105;28;20058;-77
2023/04/13 00:44:57;;;;;;;3.13;0.90;;;;;;;5.77;100.00;99407.25;5045417;28;20040;-77
2023/04/13 00:47:26;;;;;;;1.98;0.77;;;;;;;5.87;100.00;99393.44;5063556;28;20031;-77
2023/04/13 00:49:59;;;;;;;1.58;0.60;;;;;;;5.92;100.00;99396.34;5043958;28;20036;-76
2023/04/13 00:52:24;;;;;;;1.17;0.55;;;;;;;5.85;100.00;99389.25;5060396;28;20040;-77
2023/04/13 00:54:50;;;;;;;3.28;1.15;;;;;;;5.92;100.00;99394.56;5067114;28;20046;-77
2023/04/13 00:57:18;;;;;;;5.25;0.68;;;;;;;5.87;100.00;99383.94;5065689;28;20035;-77
2023/04/13 00:59:44;;;;;;;3.63;0.60;;;;;;;5.93;100.00;99379.91;5076575;28;20256;-77
2023/04/13 01:02:10;;;;;;;4.10;0.98;;;;;;;5.98;100.00;99391.38;5065040;28;20055;-78
2023/04/13 01:04:36;;;;;;;2.67;0.73;;;;;;;6.04;99.48;99387.34;5058888;28;20036;-76
2023/04/13 01:07:36;;;;;;;4.75;0.93;;;;;;;5.98;98.72;99382.84;5080386;28;20119;-77
2023/04/13 01:10:16;;;;;;;4.57;0.93;;;;;;;5.98;100.00;99393.16;5079172;28;20032;-77
2023/04/13 01:12:41;;;;;;;5.05;0.90;;;;;;;6.09;100.00;99379.97;5047609;28;20024;-76
2023/04/13 01:15:11;;;;;;;3.80;0.63;;;;;;;6.14;98.11;99388.00;5068754;28;20043;-76
2023/04/13 01:17:42;;;;;;;5.57;0.80;;;;;;;6.19;97.46;99378.00;5047182;28;20032;-79
2023/04/13 01:20:19;;;;;;;3.72;0.50;;;;;;;6.24;97.38;99382.69;5063629;28;20489;-77
2023/04/13 01:22:55;;;;;;;9.18;0.50;;;;;;;6.21;95.52;99383.81;5077889;28;20035;-77
2023/04/13 01:25:53;;;;;;;5.65;0.57;;;;;;;6.22;95.58;99377.69;5042283;28;20554;-77
2023/04/13 01:28:21;;;;;;;4.50;0.85;;;;;;;6.11;97.03;99377.22;5067661;28;20038;-77
2023/04/13 01:30:48;;;;;;;2.30;0.73;;;;;;;6.12;96.96;99368.53;5064471;28;20032;-76
2023/04/13 01:33:15;;;;;;;3.97;0.73;;;;;;;6.21;95.83;99370.13;5077947;28;20040;-78
2023/04/13 01:35:41;;;;;;;7.07;1.75;;;;;;;6.20;96.86;99378.84;5076740;28;21414;-76
2023/04/13 01:38:09;;;;;;;1.52;0.55;;;;;;;6.32;96.26;99376.72;5081121;28;20078;-76
2023/04/13 01:40:39;;;;;;;5.85;0.60;;;;;;;6.23;95.94;99371.59;5064248;28;22192;-78
2023/04/13 01:43:06;;;;;;;3.67;0.60;;;;;;;6.34;96.00;99378.16;5044460;28;20616;-77
2023/04/13 01:46:04;;;;;;;6.72;0.70;;;;;;;6.28;95.32;99375.44;5081105;28;20054;-77
2023/04/13 01:48:39;;;;;;;2.42;0.60;;;;;;;6.29;95.31;99380.44;5063117;28;20642;-77
2023/04/13 01:51:29;;;;;;;5.90;0.90;;;;;;;6.38;94.06;99386.38;5057336;28;20062;-76
2023/04/13 01:54:01;;;;;;;4.30;0.77;;;;;;;6.28;95.27;99383.19;5076937;28;20032;-76
2023/04/13 01:56:28;;;;;;;4.40;1.00;;;;;;;6.39;95.63;99393.94;5039022;28;20092;-76
2023/04/13 01:59:01;;;;;;;6.70;0.60;;;;;;;6.30;96.53;99389.75;5064609;28;20114;-77
2023/04/13 02:01:27;;;;;;;3.60;0.65;;;;;;;6.31;96.02;99382.84;5064439;28;20039;-76
2023/04/13 02:03:53;;;;;;;5.28;0.88;;;;;;;6.40;94.96;99394.72;5064898;28;20028;-77
2023/04/13 02:06:19;;;;;;;2.22;0.60;;;;;;;6.40;94.86;99384.44;5060292;28;20036;-77
2023/04/13 02:08:45;;;;;;;4.70;0.95;;;;;;;6.40;95.42;99395.56;5058017;28;20028;-78
2023/04/13 02:11:11;;;;;;;3.88;1.20;;;;;;;6.43;94.22;99384.91;5049419;28;20032;-77
2023/04/13 02:13:37;;;;;;;3.22;0.60;;;;;;;6.38;94.48;99381.22;5079887;28;20040;-77
2023/04/13 02:16:08;;;;;;;8.27;1.40;;;;;;;6.36;93.79;99385.72;5063649;28;20228;-76
2023/04/13 02:18:34;;;;;;;4.20;0.60;;;;;;;6.40;94.38;99392.16;5065382;28;20028;-76
2023/04/13 02:21:08;;;;;;;4.18;0.70;;;;;;;6.36;95.27;99396.81;5055012;28;20777;-76
2023/04/13 02:23:39;;;;;;;4.45;0.93;;;;;;;6.42;94.65;99396.19;5077315;28;20115;-76
2023/04/13 02:26:11;;;;;;;3.78;0.55;;;;;;;6.39;94.35;99396.50;5073070;28;20444;-76
2023/04/13 02:28:39;;;;;;;7.10;2.20;;;;;;;6.40;95.02;99407.59;5071392;28;20028;-76
2023/04/13 02:31:05;;;;;;;3.15;0.80;;;;;;;6.46;95.80;99394.09;5050529;28;20502;-76
2023/04/13 02:33:31;;;;;;;6.85;1.05;;;;;;;6.40;96.35;99398.13;5081228;28;20040;-76
2023/04/13 02:35:59;;;;;;;8.68;0.95;;;;;;;6.42;96.88;99392.78;5080027;28;20032;-76
2023/04/13 02:38:27;;;;;;;6.18;0.73;;;;;;;6.31;96.89;99400.84;5058463;28;20020;-76
2023/04/13 02:40:58;;;;;;;3.00;0.70;;;;;;;6.33;97.63;99398.91;5066200;28;20036;-75
2023/04/13 02:43:25;;;;;;;3.28;0.70;;;;;;;6.37;98.25;99395.88;5080415;28;20028;-77
2023/04/13 02:45:51;;;;;;;5.10;0.82;;;;;;;6.37;97.70;99401.03;5057731;28;20033;-76
2023/04/13 02:48:19;;;;;;;7.53;0.93;;;;;;;6.40;96.98;99398.13;5079979;28;20512;-75
2023/04/13 02:50:46;;;;;;;6.40;1.58;;;;;;;6.34;96.73;99411.63;5047706;28;20042;-76
2023/04/13 02:53:17;;;;;;;2.97;1.00;;;;;;;6.46;96.14;99408.72;5085311;28;20023;-77
2023/04/13 02:55:49;;;;;;;4.82;0.82;;;;;;;6.42;96.06;99403.94;5066493;28;20032;-75
2023/04/13 02:58:14;;;;;;;4.88;0.93;;;;;;;6.45;96.17;99407.13;5082334;28;20032;-75
2023/04/13 03:00:44;;;;;;;10.63;1.02;;;;;;;6.49;95.57;99413.56;5065716;28;20062;-78
2023/04/13 03:03:12;;;;;;;2.67;0.50;;;;;;;6.43;95.92;99415.03;5065165;28;20032;-75
2023/04/13 03:05:43;;;;;;;4.72;0.60;;;;;;;6.42;95.19;99423.69;5076744;28;20082;-79
2023/04/13 03:08:13;;;;;;;3.28;0.93;;;;;;;6.41;94.95;99417.75;5077285;28;20024;-77
2023/04/13 03:10:53;;;;;;;3.17;0.50;;;;;;;6.40;94.98;99402.47;5069981;28;20036;-77
2023/04/13 03:13:19;;;;;;;2.40;0.70;;;;;;;6.39;94.87;99417.13;5055487;28;20136;-76
2023/04/13 03:15:45;;;;;;;6.45;0.65;;;;;;;6.46;94.67;99417.28;5053593;28;20035;-76
2023/04/13 03:18:12;;;;;;;6.50;0.73;;;;;;;6.39;95.14;99409.38;5086724;28;20067;-76
2023/04/13 03:20:37;;;;;;;3.90;0.57;;;;;;;6.31;96.49;99422.28;5063224;23;20055;-71
2023/04/13 03:23:05;;;;;;;5.85;0.90;;;;;;;6.25;97.60;99412.59;5084010;28;20043;-71
2023/04/13 03:25:33;;;;;;;6.28;0.70;;;;;;;6.18;98.34;99420.19;5064558;28;20040;-70
2023/04/13 03:28:00;;;;;;;7.72;1.75;;;;;;;6.18;98.61;99442.56;5067668;28;20486;-71
2023/04/13 03:30:31;;;;;;;5.60;0.93;;;;;;;6.13;99.17;99421.63;5086955;28;20040;-71
2023/04/13 03:32:59;;;;;;;3.17;0.88;;;;;;;6.21;99.11;99429.34;5081327;28;20028;-70
2023/04/13 03:35:29;;;;;;;2.15;0.70;;;;;;;6.18;99.01;99427.91;5069353;28;20086;-71
2023/04/13 03:37:57;;;;;;;7.75;0.80;;;;;;;6.30;99.46;99443.81;5071402;28;20044;-70
2023/04/13 03:40:31;;;;;;;4.22;0.82;;;;;;;6.18;100.00;99455.44;5064057;28;20056;-71
2023/04/13 03:42:57;;;;;;;3.30;0.60;;;;;;;6.10;100.00;99452.81;5046866;28;20368;-71
2023/04/13 03:45:26;;;;;;;6.80;0.70;;;;;;;6.09;100.00;99458.94;5070009;28;20036;-71
2023/04/13 03:47:54;;;;;;;5.53;0.90;;;;;;;6.07;100.00;99450.59;5077851;28;20032;-71
2023/04/13 03:50:21;;;;;;;10.85;1.63;;;;;;;6.03;100.00;99458.63;5065601;28;20036;-71
2023/04/13 03:52:48;;;;;;;4.15;0.90;;;;;;;6.06;100.00;99460.06;5061651;28;20072;-71
2023/04/13 03:55:14;;;;;;;7.35;0.98;;;;;;;5.95;100.00;99458.63;5065761;28;20510;-71
2023/04/13 03:57:41;;;;;;;3.97;0.75;;;;;;;6.07;100.00;99471.19;5082840;28;20036;-71
2023/04/13 04:00:13;;;;;;;6.35;1.50;;;;;;;6.01;100.00;99463.13;5082509;28;20514;-70
2023/04/13 04:03:08;;;;;;;4.40;0.80;;;;;;;5.93;100.00;99473.34;5083458;28;20573;-71
2023/04/13 04:05:44;;;;;;;5.10;1.13;;;;;;;5.99;100.00;99470.19;5074189;28;20036;-71
2023/04/13 04:08:09;;;;;;;2.75;0.82;;;;;;;5.95;100.00;99474.06;5079530;28;20029;-71
2023/04/13 04:10:36;;;;;;;4.18;0.80;;;;;;;6.09;100.00;99475.19;5081184;28;20517;-71
2023/04/13 04:13:01;;;;;;;3.92;0.85;;;;;;;6.01;100.00;99488.06;5080329;28;20025;-71
2023/04/13 04:15:30;;;;;;;3.63;1.10;;;;;;;5.99;100.00;99480.50;5067911;28;20039;-71
2023/04/13 04:18:01;;;;;;;3.60;0.80;;;;;;;5.94;100.00;99497.34;5064441;28;20509;-71
2023/04/13 04:20:27;;;;;;;3.78;0.98;;;;;;;5.82;100.00;99500.19;5068321;28;20036;-70
2023/04/13 04:22:53;;;;;;;4.53;0.95;;;;;;;5.88;100.00;99500.50;5067270;28;20033;-70
2023/04/13 04:25:22;;;;;;;9.57;1.20;;;;;;;5.84;100.00;99507.75;5067805;28;20032;-70
2023/04/13 04:27:56;;;;;;;5.75;1.23;;;;;;;5.75;100.00;99508.69;5082110;28;20489;-71
2023/04/13 04:30:24;;;;;;;4.40;0.95;;;;;;;5.86;100.00;99510.97;5065497;28;20116;-71
2023/04/13 04:32:53;;;;;;;5.20;0.57;;;;;;;5.90;100.00;99509.69;5082493;28;20444;-71
2023/04/13 04:35:20;;;;;;;6.32;1.13;;;;;;;5.89;100.00;99515.00;5078887;28;20794;-71
2023/04/13 04:37:52;;;;;;;5.50;0.90;;;;;;;6.04;100.00;99521.19;5080169;28;20043;-71
2023/04/13 04:40:18;;;;;;;3.58;0.95;;;;;;;5.91;100.00;99523.38;5080805;28;20039;-71
2023/04/13 04:42:44;;;;;;;5.43;1.58;;;;;;;5.95;100.00;99538.38;5081918;28;20036;-71
2023/04/13 04:45:28;;;;;;;6.60;0.90;;;;;;;6.03;100.00;99535.81;5066188;28;20028;-71
2023/04/13 04:47:57;;;;;;;6.20;1.77;;;;;;;6.01;100.00;99547.25;5061859;28;20024;-71
2023/04/13 04:50:24;;;;;;;4.90;0.80;;;;;;;5.97;100.00;99564.75;5070754;28;20036;-71
2023/04/13 04:52:57;;;;;;;5.15;0.80;;;;;;;5.99;100.00;99565.41;5064349;28;20036;-71
2023/04/13 04:55:24;;;;;;;7.97;1.17;;;;;;;6.09;100.00;99559.31;5084542;28;20036;-71
2023/04/13 04:57:49;;;;;;;9.30;1.73;;;;;;;6.14;100.00;99569.94;5065945;28;20025;-72
2023/04/13 05:00:17;;;;;;;3.97;1.50;;;;;;;6.07;100.00;99574.13;5063905;28;20036;-71
2023/04/13 05:03:02;;;;;;;5.07;1.10;;;;;;;6.06;100.00;99578.44;5056599;28;20483;-71
2023/04/13 05:05:31;;;;;;;5.35;1.30;;;;;;;6.13;100.00;99587.16;5080664;28;20118;-71
2023/04/13 05:08:02;;;;;;;7.50;1.45;;;;;;;6.18;100.00;99581.56;5082190;28;20048;-72
2023/04/13 05:10:28;;;;;;;9.55;1.88;;;;;;;6.19;100.00;99590.88;5062442;28;20056;-71
2023/04/13 05:12:56;;;;;;;3.92;1.20;;;;;;;6.11;100.00;99594.22;5083027;28;20401;-71
2023/04/13 05:15:22;;;;;;;5.63;1.02;;;;;;;6.09;100.00;99595.34;5080949;28;20497;-71
2023/04/13 05:17:49;;;;;;;7.55;1.65;;;;;;;6.07;100.00;99610.16;5079048;28;20035;-71
2023/04/13 05:20:16;;;;;;;5.70;2.22;;;;;;;6.13;100.00;99609.53;5077084;28;20037;-71
2023/04/13 05:23:08;;;;;;;5.70;1.40;;;;;;;6.14;100.00;99614.53;5064918;28;20040;-71
2023/04/13 05:25:39;;;;;;;6.30;1.67;;;;;;;6.22;100.00;99614.53;5062358;28;20036;-71
2023/04/13 05:28:11;;;;;;;6.75;2.30;;;;;;;6.26;100.00;99624.53;5062810;28;20040;-71
2023/04/13 05:30:37;;;;;;;12.60;3.95;;;;;;;6.30;100.00;99633.53;5031190;28;20036;-71
2023/04/13 05:33:05;;;;;;;3.85;1.90;;;;;;;6.28;100.00;99644.00;5059340;28;20047;-70
2023/04/13 05:35:31;;;;;;;4.38;1.30;;;;;;;6.31;100.00;99654.00;5071415;28;20499;-70
2023/04/13 05:37:58;;;;;;;4.13;1.10;;;;;;;6.33;100.00;99656.38;5064775;28;20028;-71
2023/04/13 05:40:25;;;;;;;5.20;1.20;;;;;;;6.33;100.00;99657.22;5063105;28;20106;-71
2023/04/13 05:42:50;;;;;;;10.02;2.03;;;;;;;6.43;100.00;99654.50;5029695;28;20033;-71
2023/04/13 05:45:23;;;;;;;16.93;4.63;;;;;;;6.34;100.00;99666.53;5042613;28;20561;-71
2023/04/13 05:48:11;;;;;;;8.07;3.33;;;;;;;6.36;100.00;99677.50;5064817;28;20112;-71
2023/04/13 05:50:36;;;;;;;2.78;1.95;;;;;;;6.43;100.00;99673.34;5079142;28;20120;-71
2023/04/13 05:53:04;;;;;;;5.03;2.95;;;;;;;6.59;100.00;99664.03;5078265;28;20016;-71
2023/04/13 05:55:42;;;;;;;4.05;2.15;;;;;;;6.47;99.99;99678.19;5065740;28;20037;-70
2023/04/13 05:58:09;;;;;;;5.88;1.58;;;;;;;6.55;99.67;99671.25;5060533;28;20036;-71
2023/04/13 06:00:37;;;;;;;5.72;1.58;;;;;;;6.50;99.77;99685.56;5045512;28;20036;-71
2023/04/13 06:03:07;;;;;;;5.53;2.65;;;;;;;6.60;100.00;99688.84;5045902;28;20055;-71
2023/04/13 06:05:34;;;;;;;5.78;1.65;;;;;;;6.64;99.70;99687.56;5063948;28;20033;-71
2023/04/13 06:07:59;;;;;;;3.80;1.45;;;;;;;6.66;99.30;99693.34;5064355;28;20028;-71
2023/04/13 06:10:25;;;;;;;8.45;2.67;;;;;;;6.79;98.83;99693.72;5048179;28;20098;-71
2023/04/13 06:12:51;;;;;;;7.13;2.30;;;;;;;6.83;99.08;99707.88;5047321;28;20486;-71
2023/04/13 06:15:19;;;;;;;3.67;1.30;;;;;;;6.81;98.74;99704.66;5045872;28;20044;-71
2023/04/13 06:17:46;;;;;;;5.72;1.55;;;;;;;6.81;99.02;99704.66;5064021;28;20103;-70
2023/04/13 06:20:12;;;;;;;10.15;1.70;;;;;;;6.83;98.40;99710.47;5047461;28;20495;-71
2023/04/13 06:22:37;;;;;;;2.13;0.90;;;;;;;6.91;97.97;99716.59;5081345;28;20059;-71
2023/04/13 06:25:03;;;;;;;5.30;2.22;;;;;;;6.84;98.38;99713.88;5052241;28;20021;-71
2023/04/13 06:27:33;;;;;;;5.70;1.52;;;;;;;6.92;98.51;99711.28;5080638;28;20628;-72
2023/04/13 06:30:01;;;;;;;4.70;1.80;;;;;;;6.94;97.97;99724.03;5081724;28;20536;-71
2023/04/13 06:32:30;;;;;;;5.75;2.88;;;;;;;6.98;97.64;99722.75;5078926;28;20098;-71
2023/04/13 06:34:56;;;;;;;4.18;1.80;;;;;;;7.06;97.37;99724.53;5079216;28;20423;-70
2023/04/13 06:37:22;;;;;;;7.35;1.80;;;;;;;7.14;97.04;99727.94;5078167;28;20029;-70
2023/04/13 06:39:50;;;;;;;6.10;1.15;;;;;;;7.17;95.90;99726.78;5073155;28;20048;-71
2023/04/13 06:42:17;;;;;;;7.72;2.00;;;;;;;7.27;96.40;99727.47;5096900;28;20044;-70
2023/04/13 06:44:58;;;;;;;4.82;1.63;;;;;;;7.36;95.95;99725.66;5077403;28;20437;-70
2023/04/13 06:47:29;;;;;;;11.52;4.15;;;;;;;7.39;95.06;99730.50;5083356;28;20443;-71
2023/04/13 06:49:55;;;;;;;5.32;2.72;;;;;;;7.38;94.90;99739.22;5066853;28;20119;-71
2023/04/13 06:52:21;;;;;;;5.15;1.95;;;;;;;7.46;95.05;99743.56;5084038;28;20078;-71
2023/04/13 06:54:47;;;;;;;2.00;1.05;;;;;;;7.63;95.06;99752.94;5080641;28;20622;-70
2023/04/13 06:57:39;;;;;;;3.50;1.00;;;;;;;7.67;94.10;99758.56;5066592;28;20040;-71
2023/04/13 07:00:09;;;;;;;2.33;1.20;;;;;;;7.56;95.23;99765.66;5080974;28;20494;-71
2023/04/13 07:02:35;;;;;;;4.88;1.00;;;;;;;7.54;95.00;99767.59;5069180;28;20406;-71
2023/04/13 07:05:02;;;;;;;4.28;1.40;;;;;;;7.48;94.65;99770.81;5068643;28;20107;-71
2023/04/13 07:07:28;;;;;;;3.10;1.20;;;;;;;7.44;95.26;99776.44;5066678;28;20028;-71
2023/04/13 07:09:54;;;;;;;2.83;1.40;;;;;;;7.56;94.81;99773.41;5082163;28;20044;-70
2023/04/13 07:12:20;;;;;;;3.10;1.00;;;;;;;7.57;94.74;99777.59;5076231;28;20033;-70
2023/04/13 07:14:46;;;;;;;8.20;1.30;;;;;;;7.43;94.07;99785.97;5064907;28;20490;-70
2023/04/13 07:17:15;;;;;;;7.35;2.15;;;;;;;7.41;94.47;99791.28;5082175;28;20037;-71
2023/04/13 07:19:46;;;;;;;7.65;1.23;;;;;;;7.38;94.67;99783.06;5050049;28;20397;-70
2023/04/13 07:22:13;;;;;;;5.20;1.17;;;;;;;7.49;95.44;99793.06;5068505;28;20042;-70
2023/04/13 07:24:40;;;;;;;2.92;1.20;;;;;;;7.54;94.48;99798.56;5072243;28;20059;-70
2023/04/13 07:27:08;;;;;;;5.97;1.10;;;;;;;7.46;94.47;99795.16;5064804;28;20033;-71
2023/04/13 07:29:34;;;;;;;6.72;1.10;;;;;;;7.40;95.62;99794.00;5078982;28;20031;-71
2023/04/13 07:32:07;;;;;;;7.00;1.92;;;;;;;7.56;94.49;99804.34;5097928;27;20028;-71
2023/04/13 07:34:34;;;;;;;5.47;1.40;;;;;;;7.58;95.27;99807.56;5073054;28;20036;-71
2023/04/13 07:37:00;;;;;;;11.90;5.07;;;;;;;7.78;94.30;99809.84;5092799;28;20077;-71
2023/04/13 07:39:26;;;;;;;6.13;1.50;;;;;;;7.64;92.29;99816.44;5092864;28;20060;-70
2023/04/13 07:41:53;;;;;;;7.80;2.00;;;;;;;7.88;93.28;99813.06;5072945;28;20036;-71
2023/04/13 07:44:33;;;;;;;9.52;2.00;;;;;;;8.08;92.62;99808.38;5101253;28;20690;-71
2023/04/13 07:46:59;;;;;;;6.88;1.20;;;;;;;8.29;91.18;99815.59;5068441;28;20039;-70
2023/04/13 07:49:27;;;;;;;5.85;1.80;;;;;;;8.82;89.15;99809.97;5074811;28;20039;-71
2023/04/13 07:51:54;;;;;;;6.88;1.25;;;;;;;9.19;86.59;99814.44;5073959;28;20423;-70
2023/04/13 07:54:21;;;;;;;4.03;1.30;;;;;;;9.09;85.47;99819.84;5085125;28;20375;-70
2023/04/13 07:56:48;;;;;;;9.80;1.42;;;;;;;8.92;85.90;99826.06;5069108;28;20051;-71
2023/04/13 07:59:14;;;;;;;8.75;1.27;;;;;;;8.96;86.41;99824.75;5085952;28;20020;-70
2023/04/13 08:01:41;;;;;;;5.97;1.48;;;;;;;8.92;86.29;99833.84;5050861;28;20043;-71
2023/04/13 08:04:07;;;;;;;13.48;1.42;;;;;;;8.72;86.28;99847.16;5089577;28;20455;-71
2023/04/13 08:06:34;;;;;;;7.28;1.27;;;;;;;8.73;87.31;99848.75;5082361;28;20043;-71
2023/04/13 08:09:00;;;;;;;9.05;1.88;;;;;;;8.68;86.52;99847.66;5072576;28;20031;-71
2023/04/13 08:11:26;;;;;;;9.15;1.42;;;;;;;8.58;87.49;99853.00;5087137;28;20374;-70
2023/04/13 08:13:58;;;;;;;9.07;1.92;;;;;;;8.48;88.74;99855.00;5083355;28;20020;-74
2023/04/13 08:16:24;;;;;;;9.07;1.90;;;;;;;8.33;88.82;99858.22;5086926;28;20055;-71
2023/04/13 08:18:50;;;;;;;7.40;1.35;;;;;;;8.31;88.41;99857.56;5070736;28;20547;-71
2023/04/13 08:21:17;;;;;;;7.15;1.58;;;;;;;8.23;89.09;99865.34;5091815;28;20048;-71
2023/04/13 08:23:46;;;;;;;9.88;1.88;;;;;;;8.08;89.47;99870.34;5075585;28;20395;-71
2023/04/13 08:26:19;;;;;;;11.60;2.35;;;;;;;8.22;90.00;99881.00;5085155;28;20036;-70
2023/04/13 08:28:49;;;;;;;12.32;4.30;;;;;;;8.35;89.74;99883.88;5068509;28;20984;-71
2023/04/13 08:31:16;;;;;;;9.98;1.50;;;;;;;8.44;88.20;99879.53;5063713;28;20047;-70
2023/04/13 08:33:47;;;;;;;12.25;2.08;;;;;;;8.67;87.82;99882.25;5099589;28;20390;-71
2023/04/13 08:36:13;;;;;;;9.73;1.50;;;;;;;8.51;87.06;99888.22;5068092;28;20041;-70
2023/04/13 08:38:39;;;;;;;8.63;2.53;;;;;;;8.58;88.02;99890.00;5062479;28;20036;-71
2023/04/13 08:41:06;;;;;;;12.07;3.38;;;;;;;8.60;88.38;99889.03;5063873;28;20041;-71
2023/04/13 08:43:34;;;;;;;8.07;3.00;;;;;;;8.66;86.61;99896.13;5079887;28;20090;-72
2023/04/13 08:46:03;;;;;;;9.80;2.85;;;;;;;8.81;86.76;99898.84;5083947;28;20037;-71
2023/04/13 08:48:30;;;;;;;16.55;3.60;;;;;;;8.91;86.10;99905.44;5081108;28;20028;-70
2023/04/13 08:51:00;;;;;;;9.23;3.40;;;;;;;9.16;84.91;99900.16;5079827;28;20064;-71
2023/04/13 08:53:28;;;;;;;21.77;5.30;;;;;;;9.32;84.67;99907.84;5079470;28;20041;-71
2023/04/13 08:55:57;;;;;;;12.93;3.50;;;;;;;9.60;83.98;99906.56;5047240;28;20401;-71
2023/04/13 08:58:24;;;;;;;13.07;3.95;;;;;;;9.70;83.11;99917.50;5080081;28;20028;-71
2023/04/13 09:00:50;;;;;;;12.25;5.22;;;;;;;9.93;82.42;99907.16;5093745;28;20135;-71
2023/04/13 09:03:23;;;;;;;7.93;1.70;;;;;;;10.22;81.82;99905.63;5062323;28;20435;-71
2023/04/13 09:05:58;;;;;;;11.60;2.55;;;;;;;10.29;80.62;99914.31;5076788;28;20047;-71
2023/04/13 09:08:25;;;;;;;5.68;1.80;;;;;;;10.10;78.18;99915.63;5064983;28;20020;-71
2023/04/13 09:10:53;;;;;;;10.52;2.72;;;;;;;9.93;79.08;99914.94;5047084;28;20052;-71
2023/04/13 09:13:19;;;;;;;11.52;1.52;;;;;;;9.84;78.72;99913.38;5093842;28;20565;-70
2023/04/13 09:15:46;;;;;;;13.50;1.98;;;;;;;9.73;78.26;99927.50;5061555;28;20044;-71
2023/04/13 09:18:18;;;;;;;6.38;1.70;;;;;;;9.74;77.89;99926.56;5078328;28;20028;-71
2023/04/13 09:20:57;;;;;;;15.30;2.35;;;;;;;9.58;78.89;99930.03;5061936;23;20039;-69
2023/04/13 09:23:22;;;;;;;;;;;;;;;9.53;79.96;99935.72;5080302;28;20036;-70
2023/04/13 09:25:48;;;;;;;15.43;2.30;;;;;;;9.52;80.04;99943.66;5079189;28;19930;-69
2023/04/13 09:28:18;;;;;;;7.22;2.70;;;;;;;9.46;80.10;99945.13;5062769;28;20497;-70
2023/04/13 09:30:44;;;;;;;11.52;4.78;;;;;;;9.81;80.79;99944.78;5046843;28;20040;-69
2023/04/13 09:33:12;;;;;;;17.63;2.50;;;;;;;10.28;79.21;99954.16;5063347;28;20043;-69
2023/04/13 09:35:38;;;;;;;11.02;3.15;;;;;;;10.26;76.10;99941.38;5064991;28;20040;-69
2023/04/13 09:38:05;;;;;;;13.02;3.13;;;;;;;10.16;76.96;99960.75;5082768;28;20028;-69
2023/04/13 09:40:31;;;;;;;25.58;5.07;;;;;;;10.11;76.98;99950.88;5082389;28;20118;-69
2023/04/13 09:43:00;;;;;;;22.90;3.25;;;;;;;10.20;76.73;99949.84;5052623;28;20055;-69
2023/04/13 09:45:32;;;;;;;14.43;2.45;;;;;;;10.43;75.27;99956.81;5077690;28;20489;-70
2023/04/13 09:48:01;;;;;;;8.70;2.30;;;;;;;10.75;75.54;99957.50;5077671;28;20024;-70
2023/04/13 09:50:27;;;;;;;10.93;2.72;;;;;;;10.89;74.79;99947.13;5045154;28;20486;-70
2023/04/13 09:52:59;;;;;;;13.77;2.10;;;;;;;10.59;74.11;99943.72;5079676;28;20074;-70
2023/04/13 09:55:26;;;;;;;13.45;2.92;;;;;;;10.29;72.72;99950.59;5081236;28;20027;-70
2023/04/13 09:57:51;;;;;;;13.32;2.30;;;;;;;10.18;72.96;99958.78;5072060;28;20036;-70
2023/04/13 10:00:20;;;;;;;13.82;2.17;;;;;;;9.99;73.58;99967.81;5046819;28;20141;-70
2023/04/13 10:02:50;;;;;;;12.48;2.05;;;;;;;9.94;73.87;99973.50;5065376;28;20370;-68
2023/04/13 10:05:18;;;;;;;11.07;1.90;;;;;;;9.87;74.40;99975.16;5068267;28;20107;-70
2023/04/13 10:07:44;;;;;;;13.05;2.25;;;;;;;9.91;75.07;99977.25;5068100;28;20032;-70
2023/04/13 10:10:11;;;;;;;15.32;2.00;;;;;;;9.86;75.07;99982.13;5090009;28;20024;-70
2023/04/13 10:12:45;;;;;;;13.95;2.40;;;;;;;9.90;74.19;99985.97;5050164;28;20068;-69
2023/04/13 10:15:28;;;;;;;13.10;2.65;;;;;;;9.82;74.84;99988.63;5086852;28;20036;-69
2023/04/13 10:18:05;;;;;;;14.23;2.42;;;;;;;9.79;75.96;99988.97;5073499;28;20396;-70
2023/04/13 10:20:32;;;;;;;11.77;1.75;;;;;;;10.00;77.02;99997.91;5069859;28;20106;-69
2023/04/13 10:22:58;;;;;;;16.45;3.05;;;;;;;10.28;75.36;99988.66;5094817;27;20440;-70
2023/04/13 10:25:23;;;;;;;10.80;2.00;;;;;;;10.42;74.88;100007.06;5093528;28;20114;-70
2023/04/13 10:27:59;;;;;;;14.52;2.42;;;;;;;10.48;74.25;100004.56;5107516;27;20384;-70
2023/04/13 10:30:25;;;;;;;8.90;2.58;;;;;;;10.86;75.60;100001.94;5083810;28;20038;-70
2023/04/13 10:33:05;;;;;;;13.82;2.72;;;;;;;10.98;72.09;100006.69;5091248;28;20457;-70
2023/04/13 10:35:35;;;;;;;8.60;1.67;;;;;;;11.23;71.63;100012.47;5085195;28;20119;-70
2023/04/13 10:38:02;;;;;;;17.75;3.20;;;;;;;11.18;69.62;100017.38;5105249;27;20085;-70
2023/04/13 10:40:27;;;;;;;10.63;2.05;;;;;;;11.05;69.40;100016.19;5113904;27;20061;-69
2023/04/13 10:42:53;;;;;;;15.10;2.53;;;;;;;11.04;70.07;100019.00;5099766;27;20058;-69
2023/04/13 10:45:25;;;;;;;8.85;2.15;;;;;;;11.01;69.10;100022.72;5090340;28;20188;-70
2023/04/13 10:47:51;;;;;;;12.50;2.15;;;;;;;10.84;70.47;100022.06;5092245;27;20047;-70
2023/04/13 10:50:22;;;;;;;8.18;1.70;;;;;;;10.79;70.36;100029.56;5073411;28;20024;-70
2023/04/13 10:53:05;;;;;;;12.30;1.40;;;;;;;10.82;69.94;100031.81;5090963;28;20082;-70
2023/04/13 10:55:31;;;;;;;;;;;;;;;10.77;68.18;100033.31;5092606;27;20122;-69
2023/04/13 10:57:58;;;;;;;12.98;2.08;;;;;;;10.84;68.74;100036.84;5091019;28;19918;-70
2023/04/13 11:00:25;;;;;;;15.00;2.50;;;;;;;10.99;69.39;100035.06;5088381;27;20102;-70
2023/04/13 11:02:56;;;;;;;13.95;1.75;;;;;;;11.09;69.77;100040.81;5081086;27;20035;-69
2023/04/13 11:05:24;;;;;;;15.75;2.53;;;;;;;11.08;68.24;100044.38;5084610;28;20077;-69
2023/04/13 11:07:50;;;;;;;6.50;1.73;;;;;;;11.02;68.04;100047.69;5107681;27;20040;-69
2023/04/13 11:10:27;;;;;;;14.27;1.60;;;;;;;11.01;67.01;100048.66;5085803;28;20035;-69
2023/04/13 11:12:55;;;;;;;7.72;1.40;;;;;;;11.06;67.52;100056.72;5091403;27;20093;-70
2023/04/13 11:15:22;;;;;;;13.35;1.70;;;;;;;11.03;68.52;100054.47;5075113;28;20034;-69
2023/04/13 11:17:51;;;;;;;14.60;1.75;;;;;;;11.21;66.34;100054.16;5101712;27;20204;-70
2023/04/13 11:20:16;;;;;;;6.97;1.23;;;;;;;11.00;66.72;100052.25;5101425;27;20044;-68
2023/04/13 11:22:42;;;;;;;11.10;1.92;;;;;;;11.21;66.21;100061.94;5100237;27;20050;-69
2023/04/13 11:25:08;;;;;;;9.55;1.85;;;;;;;11.13;65.48;100059.41;5086785;28;20039;-70
2023/04/13 11:27:34;;;;;;;11.40;4.38;;;;;;;11.10;66.87;100063.16;5083865;28;20043;-70
2023/04/13 11:30:05;;;;;;;33.65;10.98;;;;;;;11.19;66.73;100063.91;5091378;28;20020;-69
2023/04/13 11:32:36;;;;;;;14.70;5.18;;;;;;;11.45;65.99;100065.25;5069743;27;20122;-69
2023/04/13 11:35:09;;;;;;;13.27;3.85;;;;;;;11.51;65.84;100069.75;5101624;27;20089;-72
2023/04/13 11:37:47;;;;;;;12.45;3.47;;;;;;;11.55;64.59;100067.59;5067356;27;20047;-71
2023/04/13 11:40:19;;;;;;;13.80;4.30;;;;;;;11.69;63.85;100069.34;5105791;27;20535;-70
2023/04/13 11:42:46;;;;;;;9.68;2.15;;;;;;;12.05;64.05;100073.81;5087727;28;20520;-69
2023/04/13 11:45:15;;;;;;;11.07;2.38;;;;;;;12.20;64.11;100069.38;5105567;27;20042;-69